Sapphire, NC (28774)

03:50 AM EDT del 30 Agosto 2015 (GMT -0400)
Burlingame | | Change Station
CLOSE
Current Station
Stazione meteo personale
Location: Sapphire, NC
Altitudine: 3104 ft
Stazioni meteo nelle vicinanze

Alt. 3104 ft 35.11 °N, 82.98 °W | Updated 25 seconds ago

Coperto
Coperto
62.1 °F
Sembra 62.1 °F
N
0.0
Vento Variabile Vento da Est
Gusts 0.0 mph

Oggi
Massima -- | Minima -- °F
--% Possibilità di precip.
Ieri
Massima -- | Minima -- °F
Precip. -- in
7:02 AM 8:01 PM
Luna piena, 100% visible
Pressione 30.12 in
Visibilità 10.0 miglia
Nuvole Sereno
Punto di rugiada 61 °F
Umidità 96%
Piovosità 0.00 in
Spessore del manto nevoso Non disponibile.
Raggi UV 0 fuori da 12
Polline 8.50 fuori da 12
Qualità dell'aria Non disponibile.
Flu Activity Non disponibile.
METAR KAVL 300654Z AUTO 00000KT 10SM CLR 19/16 A3020 RMK AO2 SLP200 T01940156
Pressione 30.12 in
Visibilità 10.0 miglia
Nuvole Sereno
Punto di rugiada 61 °F
Umidità 96%
Piovosità 0.00 in
Spessore del manto nevoso Non disponibile.
Raggi UV 0 fuori da 12
Polline 8.50 fuori da 12
Qualità dell'aria Non disponibile.
Flu Activity Non disponibile.
METAR KAVL 300654Z AUTO 00000KT 10SM CLR 19/16 A3020 RMK AO2 SLP200 T01940156

10-Day Weather Forecast

×

Almanac

Astronomia

Aug. 30, 2015 Alba Tramonto
Ora attuale
Crepuscolo civile
Crepuscolo nautico
Crepuscolo astronomico
Luna
Estensione della luce visibile
Lunghezza del giorno
Tomorrow will be .
, % of the Moon is Illuminated

Gli estremi di oggi

State Highs State Lows

Community

WunderPhotos

Upload Photos

1,850,904 foto caricate!

WunderBlogs® & News

Nearby

Qualità dell'aria

  Qualità dell'aria Indice AQ Inquinante
Not available.

Profondità neve

Stazione Profondità Altitudine

Attività sismica

Città  Distanza Mag. Data & Ora
Minimo Magnitudo Mostrato è 2.5.

Temperature delle acque costiere

Località Temperatura

Stations

Stazioni meteo nelle vicinanze

Ubicazione della stazione Temp. Raffreddamento del vento Punto di rugiada Umidità Vento Precip. Alt. Aggiornato Tipo